createdAt,value
2018-10-05T00:02:22.718Z,85.04
2018-10-05T00:04:59.671Z,84.97
2018-10-05T00:07:30.980Z,85.00
2018-10-05T00:10:03.675Z,86.01
2018-10-05T00:12:32.738Z,85.69
2018-10-05T00:15:10.054Z,85.55
2018-10-05T00:17:40.016Z,86.50
2018-10-05T00:20:12.218Z,85.68
2018-10-05T00:22:49.475Z,85.31
2018-10-05T00:28:12.581Z,86.14
2018-10-05T00:30:43.569Z,86.12
2018-10-05T00:33:12.571Z,85.65
2018-10-05T00:35:53.351Z,85.70
2018-10-05T00:38:28.582Z,85.80
2018-10-05T00:41:00.219Z,86.22
2018-10-05T00:43:31.514Z,85.66
2018-10-05T00:46:02.535Z,86.10
2018-10-05T00:48:31.421Z,86.97
2018-10-05T00:51:00.417Z,86.71
2018-10-05T00:53:34.958Z,86.07
2018-10-05T00:56:17.458Z,86.82
2018-10-05T00:58:52.453Z,86.84
2018-10-05T01:01:21.343Z,86.62
2018-10-05T01:03:54.044Z,86.23
2018-10-05T01:06:27.879Z,86.70
2018-10-05T01:09:05.181Z,86.26
2018-10-05T01:11:34.330Z,86.33
2018-10-05T01:14:04.877Z,86.52
2018-10-05T01:16:35.324Z,87.49
2018-10-05T01:19:04.311Z,86.70
2018-10-05T01:21:33.219Z,87.28
2018-10-05T01:24:03.260Z,86.57
2018-10-05T01:26:33.636Z,86.67
2018-10-05T01:29:03.057Z,86.79
2018-10-05T01:31:32.445Z,86.97
2018-10-05T01:34:04.163Z,87.63
2018-10-05T01:36:38.350Z,86.97
2018-10-05T01:39:13.105Z,86.57
2018-10-05T01:41:44.908Z,87.03
2018-10-05T01:44:29.867Z,86.88
2018-10-05T01:47:05.746Z,86.36
2018-10-05T01:49:36.195Z,86.90
2018-10-05T01:52:05.602Z,86.12
2018-10-05T01:54:35.040Z,86.70
2018-10-05T01:57:04.604Z,86.82
2018-10-05T02:02:35.408Z,86.47
2018-10-05T02:05:04.903Z,87.09
2018-10-05T02:07:34.309Z,87.56
2018-10-05T02:10:06.750Z,87.25
2018-10-05T02:12:36.396Z,87.62
2018-10-05T02:15:08.003Z,86.87
2018-10-05T02:17:41.670Z,87.42
2018-10-05T02:20:17.784Z,86.58
2018-10-05T02:22:47.221Z,87.06
2018-10-05T02:25:24.144Z,86.24
2018-10-05T02:27:53.044Z,87.09
2018-10-05T02:30:24.169Z,86.10
2018-10-05T02:32:53.125Z,85.85
2018-10-05T02:35:21.942Z,85.87
2018-10-05T02:37:52.037Z,87.11
2018-10-05T02:40:21.001Z,87.09
2018-10-05T02:42:50.092Z,86.19
2018-10-05T02:45:19.088Z,86.09
2018-10-05T02:47:47.977Z,85.57
2018-10-05T02:50:16.856Z,86.15
2018-10-05T02:52:45.751Z,85.99
2018-10-05T02:55:14.721Z,86.90
2018-10-05T02:57:48.940Z,86.79
2018-10-05T03:00:35.524Z,85.73
2018-10-05T03:03:04.478Z,85.84
2018-10-05T03:05:39.181Z,86.10
2018-10-05T03:08:08.066Z,85.96
2018-10-05T03:10:36.971Z,85.90
2018-10-05T03:13:05.863Z,86.42
2018-10-05T03:15:46.685Z,85.75
2018-10-05T03:18:19.571Z,86.15
2018-10-05T03:21:06.078Z,85.41
2018-10-05T03:23:36.141Z,86.18
2018-10-05T03:26:06.137Z,86.10
2018-10-05T03:28:35.055Z,85.81
2018-10-05T03:31:06.009Z,85.38
2018-10-05T03:33:35.012Z,86.18
2018-10-05T03:36:03.968Z,85.36
2018-10-05T03:38:32.967Z,86.15
2018-10-05T03:41:11.604Z,85.40
2018-10-05T03:43:40.503Z,85.75
2018-10-05T03:46:21.243Z,85.97
2018-10-05T03:48:56.253Z,85.61
2018-10-05T03:51:33.289Z,86.57
2018-10-05T03:54:12.979Z,85.76
2018-10-05T03:56:42.926Z,86.32
2018-10-05T03:59:12.906Z,86.23
2018-10-05T04:01:48.867Z,86.28
2018-10-05T04:04:34.609Z,85.78
2018-10-05T04:07:08.361Z,85.83
2018-10-05T04:09:54.122Z,85.19
2018-10-05T04:12:23.502Z,85.88
2018-10-05T04:14:56.949Z,86.00
2018-10-05T04:17:26.847Z,85.97
2018-10-05T04:20:14.573Z,86.16
2018-10-05T04:22:45.533Z,86.03
2018-10-05T04:25:30.892Z,85.67
2018-10-05T04:28:02.889Z,85.53
2018-10-05T04:30:42.228Z,85.86
2018-10-05T04:33:11.230Z,86.48
2018-10-05T04:35:44.614Z,86.32
2018-10-05T04:38:19.223Z,85.75
2018-10-05T04:40:48.249Z,86.50
2018-10-05T04:43:21.038Z,85.87
2018-10-05T04:45:50.986Z,86.17
2018-10-05T04:48:22.770Z,85.73
2018-10-05T04:50:54.979Z,85.21
2018-10-05T04:53:29.397Z,84.98
2018-10-05T04:56:11.658Z,84.93
2018-10-05T04:58:41.586Z,86.04
2018-10-05T05:01:11.470Z,85.71
2018-10-05T05:03:42.466Z,85.58
2018-10-05T05:06:12.482Z,85.04
2018-10-05T05:08:41.447Z,86.13
2018-10-05T05:11:20.127Z,85.96
2018-10-05T05:13:51.176Z,85.52
2018-10-05T05:16:25.937Z,85.77
2018-10-05T05:18:58.919Z,86.35
2018-10-05T05:21:27.868Z,85.64
2018-10-05T05:23:57.232Z,86.39
2018-10-05T05:26:33.755Z,86.50
2018-10-05T05:29:02.727Z,86.59
2018-10-05T05:31:31.713Z,86.15
2018-10-05T05:34:06.038Z,85.82
2018-10-05T05:36:34.906Z,86.50
2018-10-05T05:39:06.765Z,85.65
2018-10-05T05:41:36.677Z,85.93
2018-10-05T05:44:10.323Z,85.29
2018-10-05T05:46:51.978Z,85.08
2018-10-05T05:49:20.838Z,85.20
2018-10-05T05:51:53.890Z,85.55
2018-10-05T05:54:22.842Z,85.68
2018-10-05T05:56:53.753Z,85.55
2018-10-05T05:59:22.721Z,85.38
2018-10-05T06:01:59.466Z,85.94
2018-10-05T06:04:31.959Z,85.65
2018-10-05T06:07:24.469Z,86.48
2018-10-05T06:09:54.547Z,86.23
2018-10-05T06:12:23.446Z,86.65
2018-10-05T06:14:52.345Z,85.99
2018-10-05T06:17:24.928Z,86.50
2018-10-05T06:19:54.881Z,86.48
2018-10-05T06:22:23.966Z,86.55
2018-10-05T06:24:52.817Z,86.39
2018-10-05T06:27:22.825Z,86.65
2018-10-05T06:29:52.801Z,86.68
2018-10-05T06:32:21.797Z,86.09
2018-10-05T06:34:54.363Z,86.21
2018-10-05T06:37:27.037Z,85.44
2018-10-05T06:40:00.566Z,86.25
2018-10-05T06:42:30.635Z,86.20
2018-10-05T06:45:09.616Z,86.27
2018-10-05T06:47:38.647Z,86.97
2018-10-05T06:50:15.961Z,86.12
2018-10-05T06:52:52.588Z,85.82
2018-10-05T06:55:21.458Z,86.14
2018-10-05T06:57:56.887Z,86.72
2018-10-05T07:00:25.844Z,85.98
2018-10-05T07:02:55.002Z,85.84
2018-10-05T07:05:24.019Z,85.81
2018-10-05T07:07:53.105Z,85.88
2018-10-05T07:10:42.311Z,85.53
2018-10-05T07:13:11.402Z,86.08
2018-10-05T07:15:41.297Z,85.70
2018-10-05T07:18:28.029Z,85.93
2018-10-05T07:20:57.073Z,86.33
2018-10-05T07:23:25.954Z,85.95
2018-10-05T07:25:54.835Z,86.86
2018-10-05T07:28:30.160Z,86.23
2018-10-05T07:33:53.818Z,86.26
2018-10-05T07:36:32.900Z,85.20
2018-10-05T07:39:01.887Z,86.12
2018-10-05T07:41:31.237Z,86.02
2018-10-05T07:44:01.170Z,85.54
2018-10-05T07:46:30.045Z,85.78
2018-10-05T07:49:05.213Z,85.73
2018-10-05T07:51:34.126Z,85.19
2018-10-05T07:54:06.255Z,85.28
2018-10-05T07:56:35.249Z,85.26
2018-10-05T07:59:10.000Z,85.64
2018-10-05T08:01:44.458Z,85.52
2018-10-05T08:04:16.661Z,85.66
2018-10-05T08:06:46.639Z,85.87
2018-10-05T08:09:20.282Z,85.28
2018-10-05T08:11:53.276Z,84.90
2018-10-05T08:14:33.359Z,83.60
2018-10-05T08:17:18.767Z,83.23
2018-10-05T08:19:51.977Z,82.56
2018-10-05T08:22:27.028Z,81.71
2018-10-05T08:25:06.875Z,81.07
2018-10-05T08:27:38.049Z,79.35
2018-10-05T08:30:18.985Z,78.42
2018-10-05T08:33:01.082Z,78.35
2018-10-05T08:35:32.585Z,78.16
2018-10-05T08:38:01.613Z,76.82
2018-10-05T08:40:35.377Z,76.38
2018-10-05T08:43:04.975Z,75.69
2018-10-05T08:45:47.917Z,75.60
2018-10-05T08:48:17.848Z,75.99
2018-10-05T08:50:46.828Z,74.29
2018-10-05T08:53:15.807Z,73.54
2018-10-05T08:55:44.753Z,74.23
2018-10-05T08:58:19.510Z,72.95
2018-10-05T09:00:57.252Z,72.50
2018-10-05T09:03:29.492Z,72.64
2018-10-05T09:06:00.505Z,71.66
2018-10-05T09:08:30.432Z,71.79
2018-10-05T09:10:59.447Z,71.96
2018-10-05T09:13:31.688Z,71.79
2018-10-05T09:16:03.109Z,71.71
2018-10-05T09:18:37.849Z,72.12
2018-10-05T09:21:06.926Z,71.84
2018-10-05T09:23:36.063Z,70.97
2018-10-05T09:26:27.140Z,70.80
2018-10-05T09:28:56.069Z,70.34
2018-10-05T09:31:25.987Z,70.14
2018-10-05T09:33:56.957Z,69.87
2018-10-05T09:36:26.926Z,69.23
2018-10-05T09:38:57.830Z,68.11
2018-10-05T09:41:26.782Z,67.51
2018-10-05T09:43:55.768Z,66.81
2018-10-05T09:46:25.805Z,67.27
2018-10-05T09:48:54.767Z,66.51
2018-10-05T09:51:24.718Z,67.33
2018-10-05T09:54:01.699Z,66.65
2018-10-05T09:56:35.187Z,66.48
2018-10-05T09:59:05.183Z,66.71
2018-10-05T10:02:55.831Z,65.86
2018-10-05T10:05:25.785Z,65.02
2018-10-05T10:07:55.819Z,64.92
2018-10-05T10:10:30.551Z,64.33
2018-10-05T10:13:00.555Z,64.49
2018-10-05T10:15:30.622Z,64.10
2018-10-05T10:18:00.688Z,63.82
2018-10-05T10:20:41.300Z,63.69
2018-10-05T10:23:11.284Z,63.52
2018-10-05T10:25:40.254Z,63.78
2018-10-05T10:28:15.276Z,63.56
2018-10-05T10:30:47.985Z,62.21
2018-10-05T10:33:39.832Z,62.21
2018-10-05T10:36:09.169Z,61.84
2018-10-05T10:38:45.935Z,61.77
2018-10-05T10:41:20.563Z,61.58
2018-10-05T10:43:53.933Z,62.09
2018-10-05T10:46:24.463Z,61.23
2018-10-05T10:48:59.967Z,60.30
2018-10-05T10:51:34.548Z,60.57
2018-10-05T10:54:15.431Z,61.14
2018-10-05T10:56:44.953Z,60.77
2018-10-05T10:59:14.757Z,60.71
2018-10-05T11:01:44.211Z,61.00
2018-10-05T11:04:18.076Z,60.36
2018-10-05T11:06:48.760Z,60.12
2018-10-05T11:09:18.996Z,59.91
2018-10-05T11:11:50.311Z,59.42
2018-10-05T11:14:20.810Z,59.44
2018-10-05T11:16:57.347Z,60.11
2018-10-05T11:19:30.311Z,59.67
2018-10-05T11:22:00.044Z,58.78
2018-10-05T11:24:33.045Z,58.77
2018-10-05T11:27:09.439Z,58.83
2018-10-05T11:29:38.951Z,57.62
2018-10-05T11:32:14.787Z,57.58
2018-10-05T11:34:49.208Z,57.01
2018-10-05T11:37:18.711Z,57.18
2018-10-05T11:39:47.841Z,57.18
2018-10-05T11:42:27.038Z,56.50
2018-10-05T11:44:56.474Z,57.04
2018-10-05T11:47:26.143Z,56.75
2018-10-05T11:49:59.250Z,56.31
2018-10-05T11:52:32.388Z,56.78
2018-10-05T11:55:01.687Z,56.93
2018-10-05T11:57:31.205Z,57.27
2018-10-05T12:00:00.758Z,57.44
2018-10-05T12:02:31.367Z,55.47
2018-10-05T12:05:00.506Z,55.18
2018-10-05T12:07:35.421Z,54.68
2018-10-05T12:10:12.081Z,55.42
2018-10-05T12:12:57.053Z,54.94
2018-10-05T12:15:25.986Z,53.58
2018-10-05T12:17:56.925Z,53.92
2018-10-05T12:20:25.945Z,52.91
2018-10-05T12:22:54.924Z,53.57
2018-10-05T12:25:31.331Z,52.67
2018-10-05T12:28:00.694Z,51.21
2018-10-05T12:30:32.215Z,52.04
2018-10-05T12:33:02.914Z,51.83
2018-10-05T12:35:32.335Z,51.89
2018-10-05T12:38:01.897Z,51.40
2018-10-05T12:40:36.439Z,51.16
2018-10-05T12:43:13.123Z,50.10
2018-10-05T12:45:46.127Z,49.26
2018-10-05T12:48:15.149Z,49.43
2018-10-05T12:50:56.842Z,48.88
2018-10-05T12:53:29.638Z,49.88
2018-10-05T12:55:58.631Z,48.51
2018-10-05T12:58:28.645Z,48.92
2018-10-05T13:00:58.555Z,49.58
2018-10-05T13:03:27.548Z,47.84
2018-10-05T13:05:56.983Z,48.11
2018-10-05T13:08:29.773Z,48.27
2018-10-05T13:11:01.964Z,49.58
2018-10-05T13:13:31.948Z,47.92
2018-10-05T13:16:07.169Z,47.22
2018-10-05T13:18:37.334Z,46.84
2018-10-05T13:21:07.313Z,46.68
2018-10-05T13:23:38.468Z,46.30
2018-10-05T13:26:09.966Z,46.56
2018-10-05T13:28:46.866Z,45.56
2018-10-05T13:31:17.730Z,46.38
2018-10-05T13:33:50.188Z,47.11
2018-10-05T13:36:21.138Z,46.06
2018-10-05T13:38:50.225Z,46.49
2018-10-05T13:41:19.220Z,47.23
2018-10-05T13:43:48.216Z,48.25
2018-10-05T13:46:20.673Z,47.98
2018-10-05T13:48:49.679Z,48.37
2018-10-05T13:51:19.590Z,48.07
2018-10-05T13:53:48.565Z,47.06
2018-10-05T13:56:19.541Z,47.92
2018-10-05T13:58:51.558Z,45.98
2018-10-05T14:01:28.880Z,46.55
2018-10-05T14:03:59.811Z,47.35
2018-10-05T14:06:30.827Z,47.35
2018-10-05T14:08:59.877Z,48.02
2018-10-05T14:11:30.887Z,47.51
2018-10-05T14:13:59.907Z,47.62
2018-10-05T14:16:34.599Z,47.77
2018-10-05T14:19:04.847Z,48.35
2018-10-05T14:21:37.362Z,47.97
2018-10-05T14:24:10.432Z,48.43
2018-10-05T14:26:43.967Z,47.86
2018-10-05T14:29:12.997Z,47.75
2018-10-05T14:31:43.046Z,48.08
2018-10-05T14:34:12.513Z,47.45
2018-10-05T14:36:42.536Z,47.29
2018-10-05T14:39:13.468Z,47.49
2018-10-05T14:41:43.483Z,47.34
2018-10-05T14:44:12.406Z,47.62
2018-10-05T14:46:41.368Z,48.12
2018-10-05T14:49:10.347Z,48.23
2018-10-05T14:51:45.328Z,45.92
2018-10-05T14:54:17.842Z,46.70
2018-10-05T14:56:51.406Z,46.83
2018-10-05T14:59:23.309Z,46.03
2018-10-05T15:01:53.268Z,46.32
2018-10-05T15:04:22.266Z,46.44
2018-10-05T15:06:51.219Z,46.87
2018-10-05T15:09:24.469Z,47.16
2018-10-05T15:11:53.395Z,47.36
2018-10-05T15:14:24.874Z,47.41
2018-10-05T15:16:53.948Z,47.50
2018-10-05T15:19:23.068Z,46.01
2018-10-05T15:21:54.563Z,46.18
2018-10-05T15:24:23.523Z,47.17
2018-10-05T15:26:54.943Z,47.92
2018-10-05T15:29:25.261Z,48.17
2018-10-05T15:31:54.307Z,48.10
2018-10-05T15:34:25.720Z,48.59
2018-10-05T15:36:58.551Z,48.38
2018-10-05T15:39:27.522Z,49.38
2018-10-05T15:41:57.030Z,49.16
2018-10-05T15:44:29.673Z,48.19
2018-10-05T15:47:07.724Z,48.23
2018-10-05T15:49:39.431Z,48.70
2018-10-05T15:52:08.448Z,48.53
2018-10-05T15:54:37.424Z,48.97
2018-10-05T15:57:07.516Z,48.18
2018-10-05T15:59:37.025Z,48.04
2018-10-05T16:02:05.948Z,48.45
2018-10-05T16:04:34.977Z,48.41
2018-10-05T16:07:04.938Z,48.49
2018-10-05T16:09:33.810Z,48.83
2018-10-05T16:12:08.485Z,49.50
2018-10-05T16:14:37.583Z,49.43
2018-10-05T16:17:06.666Z,50.07
2018-10-05T16:19:36.257Z,50.78
2018-10-05T16:22:05.924Z,51.08
2018-10-05T16:24:38.742Z,51.94
2018-10-05T16:27:12.682Z,52.49
2018-10-05T16:29:43.925Z,53.26
2018-10-05T16:32:13.480Z,54.34
2018-10-05T16:34:43.671Z,55.03
2018-10-05T16:37:14.701Z,56.05
2018-10-05T16:39:50.360Z,56.81
2018-10-05T16:42:19.363Z,57.29
2018-10-05T16:44:48.299Z,58.24
2018-10-05T16:47:21.309Z,58.99
2018-10-05T16:52:47.510Z,59.98
2018-10-05T16:55:16.443Z,60.58
2018-10-05T16:57:51.803Z,60.46
2018-10-05T17:00:21.701Z,60.93
2018-10-05T17:02:50.766Z,61.00
2018-10-05T17:05:23.932Z,62.15
2018-10-05T17:07:53.987Z,62.45
2018-10-05T17:10:23.933Z,62.70
2018-10-05T17:12:58.776Z,62.94
2018-10-05T17:15:33.592Z,62.86
2018-10-05T17:18:02.542Z,63.70
2018-10-05T17:20:32.540Z,63.32
2018-10-05T17:23:20.494Z,63.18
2018-10-05T17:25:49.414Z,63.46
2018-10-05T17:28:20.399Z,63.20
2018-10-05T17:30:55.119Z,63.71
2018-10-05T17:33:28.846Z,64.23
2018-10-05T17:35:57.772Z,64.04
2018-10-05T17:38:34.678Z,64.02
2018-10-05T17:41:09.147Z,64.48
2018-10-05T17:43:41.933Z,64.33
2018-10-05T17:46:18.013Z,64.79
2018-10-05T17:48:46.897Z,64.74
2018-10-05T17:51:15.787Z,65.23
2018-10-05T17:53:47.125Z,65.69
2018-10-05T17:56:19.643Z,65.62
2018-10-05T17:58:48.666Z,65.85
2018-10-05T18:01:28.682Z,66.62
2018-10-05T18:03:58.719Z,66.97
2018-10-05T18:06:31.782Z,66.65
2018-10-05T18:09:02.348Z,66.68
2018-10-05T18:11:35.372Z,67.18
2018-10-05T18:14:08.694Z,67.62
2018-10-05T18:16:40.131Z,67.94
2018-10-05T18:19:10.649Z,68.69
2018-10-05T18:21:40.052Z,69.12
2018-10-05T18:24:13.318Z,69.51
2018-10-05T18:26:43.790Z,69.48
2018-10-05T18:29:14.434Z,69.39
2018-10-05T18:31:45.019Z,69.36
2018-10-05T18:34:18.743Z,69.60
2018-10-05T18:37:00.898Z,69.33
2018-10-05T18:39:34.580Z,70.02
2018-10-05T18:42:15.943Z,69.82
2018-10-05T18:44:49.245Z,70.57
2018-10-05T18:47:23.710Z,71.08
2018-10-05T18:49:56.386Z,70.87
2018-10-05T18:52:25.844Z,71.20
2018-10-05T18:54:56.999Z,70.51
2018-10-05T18:57:30.408Z,70.98
2018-10-05T19:00:00.337Z,70.43
2018-10-05T19:02:29.829Z,70.56
2018-10-05T19:05:03.552Z,70.31
2018-10-05T19:07:34.786Z,69.67
2018-10-05T19:10:04.216Z,69.67
2018-10-05T19:12:38.763Z,69.63
2018-10-05T19:15:09.442Z,69.44
2018-10-05T19:17:38.604Z,69.65
2018-10-05T19:20:08.554Z,69.56
2018-10-05T19:22:39.477Z,69.54
2018-10-05T19:25:08.570Z,69.60
2018-10-05T19:27:38.490Z,69.67
2018-10-05T19:30:07.378Z,69.48
2018-10-05T19:32:36.391Z,70.02
2018-10-05T19:35:05.460Z,69.96
2018-10-05T19:37:34.439Z,70.28
2018-10-05T19:40:03.412Z,70.48
2018-10-05T19:42:32.369Z,70.58
2018-10-05T19:45:02.433Z,70.04
2018-10-05T19:47:31.363Z,70.27
2018-10-05T19:50:00.431Z,71.41
2018-10-05T19:52:29.706Z,71.55
2018-10-05T19:55:01.916Z,71.59
2018-10-05T19:57:31.879Z,72.05
2018-10-05T20:00:13.509Z,71.67
2018-10-05T20:02:44.952Z,72.18
2018-10-05T20:05:15.179Z,71.79
2018-10-05T20:07:44.323Z,72.13
2018-10-05T20:10:13.481Z,72.34
2018-10-05T20:12:45.664Z,72.49
2018-10-05T20:15:16.680Z,72.46
2018-10-05T20:17:51.799Z,72.57
2018-10-05T20:20:26.477Z,72.61
2018-10-05T20:23:15.690Z,72.88
2018-10-05T20:25:52.606Z,72.57
2018-10-05T20:28:26.457Z,72.88
2018-10-05T20:30:56.517Z,72.50
2018-10-05T20:33:43.667Z,72.81
2018-10-05T20:36:12.956Z,73.59
2018-10-05T20:38:54.398Z,73.81
2018-10-05T20:41:25.309Z,73.97
2018-10-05T20:44:11.892Z,74.07
2018-10-05T20:46:41.633Z,74.47
2018-10-05T20:49:21.350Z,74.44
2018-10-05T20:51:52.944Z,75.05
2018-10-05T20:54:27.104Z,75.50
2018-10-05T20:57:00.550Z,75.75
2018-10-05T20:59:34.369Z,75.37
2018-10-05T21:02:03.345Z,75.33
2018-10-05T21:04:32.360Z,75.53
2018-10-05T21:07:01.461Z,76.04
2018-10-05T21:09:30.366Z,75.73
2018-10-05T21:11:59.354Z,76.16
2018-10-05T21:14:28.282Z,75.68
2018-10-05T21:17:09.837Z,75.66
2018-10-05T21:19:43.647Z,75.86
2018-10-05T21:22:18.930Z,75.96
2018-10-05T21:24:51.433Z,75.85
2018-10-05T21:27:22.470Z,75.96
2018-10-05T21:30:01.416Z,75.58
2018-10-05T21:32:34.653Z,76.05
2018-10-05T21:35:03.825Z,76.53
2018-10-05T21:37:34.169Z,76.56
2018-10-05T21:40:03.267Z,76.60
2018-10-05T21:42:34.293Z,76.50
2018-10-05T21:45:07.915Z,76.72
2018-10-05T21:47:42.543Z,77.08
2018-10-05T21:50:33.433Z,77.46
2018-10-05T21:53:08.517Z,77.68
2018-10-05T21:55:37.532Z,78.40
2018-10-05T21:58:13.033Z,77.91
2018-10-05T22:00:44.046Z,77.86
2018-10-05T22:03:13.042Z,78.13
2018-10-05T22:05:45.958Z,78.39
2018-10-05T22:11:12.492Z,78.64
2018-10-05T22:13:41.491Z,78.91
2018-10-05T22:16:21.496Z,79.36
2018-10-05T22:19:00.293Z,78.90
2018-10-05T22:21:29.525Z,79.11
2018-10-05T22:24:02.213Z,79.39
2018-10-05T22:26:36.583Z,79.04
2018-10-05T22:29:07.535Z,79.10
2018-10-05T22:31:48.496Z,79.27
2018-10-05T22:34:35.653Z,79.34
2018-10-05T22:37:04.764Z,79.23
2018-10-05T22:39:52.277Z,79.12
2018-10-05T22:42:21.220Z,79.46
2018-10-05T22:44:50.103Z,80.20
2018-10-05T22:47:19.136Z,79.05
2018-10-05T22:49:54.220Z,79.29
2018-10-05T22:52:25.358Z,80.13
2018-10-05T22:54:59.162Z,79.67
2018-10-05T22:57:30.181Z,79.95
2018-10-05T23:00:05.889Z,80.65
2018-10-05T23:02:38.109Z,80.72
2018-10-05T23:05:07.521Z,80.50
2018-10-05T23:07:37.474Z,82.23
2018-10-05T23:10:11.999Z,82.19
2018-10-05T23:12:46.404Z,81.27
2018-10-05T23:18:14.492Z,81.22
2018-10-05T23:20:44.382Z,81.70
2018-10-05T23:23:17.123Z,81.86
2018-10-05T23:25:52.452Z,82.60
2018-10-05T23:28:22.475Z,82.39
2018-10-05T23:30:56.880Z,82.31
2018-10-05T23:33:39.057Z,81.97
2018-10-05T23:36:08.080Z,82.55
2018-10-05T23:38:53.605Z,81.72
2018-10-05T23:41:22.771Z,82.30
2018-10-05T23:43:53.680Z,81.54
2018-10-05T23:46:39.224Z,81.86
2018-10-05T23:49:08.198Z,82.26
2018-10-05T23:51:37.163Z,82.56
2018-10-05T23:54:06.251Z,81.97
2018-10-05T23:56:35.102Z,82.10
2018-10-05T23:59:03.990Z,82.49
